createdAt,value
2023-04-17T00:01:08.884Z,9.16
2023-04-17T00:03:37.901Z,9.17
2023-04-17T00:06:06.627Z,9.13
2023-04-17T00:08:36.361Z,9.10
2023-04-17T00:11:08.418Z,9.08
2023-04-17T00:13:38.476Z,9.11
2023-04-17T00:16:06.685Z,9.11
2023-04-17T00:18:34.498Z,9.12
2023-04-17T00:21:02.248Z,9.13
2023-04-17T00:23:36.627Z,9.14
2023-04-17T04:40:21.557Z,8.61
2023-04-17T04:42:49.583Z,8.60
2023-04-17T04:45:17.448Z,8.60
2023-04-17T04:47:44.997Z,8.59
2023-04-17T04:50:12.513Z,8.57
2023-04-17T04:52:40.129Z,8.59
2023-04-17T04:55:08.537Z,8.62
2023-04-17T04:57:37.404Z,8.64
2023-04-17T05:00:08.662Z,8.71
2023-04-17T05:02:37.022Z,8.76
2023-04-17T05:05:05.265Z,8.73
2023-04-17T05:07:32.890Z,8.75
2023-04-17T05:10:00.425Z,8.76
2023-04-17T05:12:27.947Z,8.78
2023-04-17T05:14:56.888Z,8.78
2023-04-17T05:17:24.623Z,8.77
2023-04-17T05:19:52.239Z,8.76
2023-04-17T05:22:19.820Z,8.75
2023-04-17T05:24:47.484Z,8.74
2023-04-17T05:27:15.156Z,8.75
2023-04-17T05:29:42.804Z,8.74
2023-04-17T05:32:11.859Z,8.72
2023-04-17T05:34:39.623Z,8.72
2023-04-17T05:37:07.904Z,8.73
2023-04-17T05:39:36.016Z,8.73
2023-04-17T05:42:03.599Z,8.73
2023-04-17T05:44:32.093Z,8.73
2023-04-17T05:47:00.683Z,8.73
2023-04-17T05:49:30.111Z,8.73
2023-04-17T05:51:57.736Z,8.71
2023-04-17T05:54:25.428Z,8.71
2023-04-17T05:56:53.084Z,8.73
2023-04-17T05:59:21.137Z,8.74
2023-04-17T06:01:49.055Z,8.74
2023-04-17T06:04:18.253Z,8.75
2023-04-17T06:06:47.591Z,8.78
2023-04-17T06:09:15.879Z,8.79
2023-04-17T06:11:43.465Z,8.79
2023-04-17T06:14:11.273Z,8.80
2023-04-17T06:16:38.789Z,8.81
2023-04-17T06:19:06.469Z,8.83
2023-04-17T06:21:34.100Z,8.83
2023-04-17T06:24:03.006Z,8.84
2023-04-17T06:26:30.636Z,8.82
2023-04-17T06:28:58.347Z,8.81
2023-04-17T06:31:26.387Z,8.81
2023-04-17T06:33:53.975Z,8.77
2023-04-17T06:36:21.491Z,8.77
2023-04-17T06:38:49.084Z,8.75
2023-04-17T06:41:17.975Z,8.75
2023-04-17T06:43:45.549Z,8.75
2023-04-17T06:46:13.138Z,8.76
2023-04-17T06:48:40.685Z,8.75
2023-04-17T06:51:08.241Z,8.78
2023-04-17T06:53:35.972Z,8.82
2023-04-17T06:56:03.530Z,8.85
2023-04-17T06:58:33.158Z,8.89
2023-04-17T07:01:00.686Z,8.90
2023-04-17T07:03:29.612Z,8.89
2023-04-17T07:05:57.281Z,8.89
2023-04-17T07:08:24.848Z,8.92
2023-04-17T07:10:52.451Z,8.96
2023-04-17T07:13:19.983Z,9.00
2023-04-17T07:15:54.345Z,9.06
2023-04-17T07:18:22.541Z,9.10
2023-04-17T07:20:50.417Z,9.10
2023-04-17T07:23:18.394Z,9.12
2023-04-17T07:25:45.923Z,9.17
2023-04-17T07:28:14.117Z,9.18
2023-04-17T07:30:42.495Z,9.16
2023-04-17T07:33:11.469Z,9.18
2023-04-17T07:35:39.051Z,9.22
2023-04-17T07:38:06.612Z,9.31
2023-04-17T07:40:36.767Z,9.31
2023-04-17T07:43:04.478Z,9.31
2023-04-17T07:45:33.399Z,9.30
2023-04-17T07:48:01.218Z,9.28
2023-04-17T07:50:30.316Z,9.27
2023-04-17T07:52:57.895Z,9.24
2023-04-17T07:55:25.384Z,9.23
2023-04-17T07:57:53.018Z,9.24
2023-04-17T08:00:21.631Z,9.26
2023-04-17T08:02:49.474Z,9.31
2023-04-17T08:05:17.265Z,9.35
2023-04-17T08:07:46.240Z,9.34
2023-04-17T08:10:13.799Z,9.36
2023-04-17T08:12:41.457Z,9.41
2023-04-17T08:15:09.979Z,9.45
2023-04-17T08:17:37.574Z,9.48
2023-04-17T08:20:11.900Z,9.52
2023-04-17T08:22:41.174Z,9.53
2023-04-17T08:25:11.730Z,9.54
2023-04-17T08:27:40.787Z,9.55
2023-04-17T08:30:12.412Z,9.57
2023-04-17T08:32:41.921Z,9.59
2023-04-17T08:35:11.372Z,9.63
2023-04-17T08:37:39.038Z,9.65
2023-04-17T08:40:09.365Z,9.64
2023-04-17T08:42:39.552Z,9.65
2023-04-17T08:45:09.564Z,9.66
2023-04-17T08:47:37.559Z,9.70
2023-04-17T08:50:08.862Z,9.73
2023-04-17T08:52:39.890Z,9.76
2023-04-17T08:55:08.163Z,9.78
2023-04-17T08:57:36.408Z,9.81
2023-04-17T09:00:12.026Z,9.83
2023-04-17T09:02:56.365Z,9.85
2023-04-17T09:05:24.924Z,9.87
2023-04-17T09:08:08.278Z,9.92
2023-04-17T09:10:37.280Z,9.97
2023-04-17T09:13:05.214Z,10.05
2023-04-17T09:15:35.169Z,10.13
2023-04-17T09:18:03.467Z,10.21
2023-04-17T09:20:31.156Z,10.31
2023-04-17T09:23:01.872Z,10.44
2023-04-17T09:25:30.276Z,10.53
2023-04-17T09:28:11.479Z,10.63
2023-04-17T09:30:41.202Z,10.72
2023-04-17T09:33:10.402Z,10.85
2023-04-17T09:35:40.182Z,11.00
2023-04-17T09:38:08.053Z,11.16
2023-04-17T09:40:40.638Z,11.24
2023-04-17T09:43:10.395Z,11.23
2023-04-17T09:45:42.919Z,11.16
2023-04-17T09:48:12.852Z,11.08
2023-04-17T09:50:41.233Z,11.01
2023-04-17T09:53:09.729Z,10.97
2023-04-17T09:55:38.048Z,10.94
2023-04-17T09:58:07.936Z,10.92
2023-04-17T10:00:37.737Z,10.86
2023-04-17T10:03:08.416Z,10.83
2023-04-17T10:05:36.720Z,10.80
2023-04-17T10:08:04.985Z,10.80
2023-04-17T10:10:36.581Z,10.85
2023-04-17T10:13:08.293Z,10.87
2023-04-17T10:15:36.711Z,10.90
2023-04-17T10:18:23.631Z,10.95
2023-04-17T10:20:53.227Z,10.98
2023-04-17T10:23:32.789Z,10.99
2023-04-17T10:26:43.035Z,11.02
2023-04-17T10:29:12.666Z,11.03
2023-04-17T10:32:20.356Z,11.01
2023-04-17T10:34:49.564Z,11.03
2023-04-17T10:37:17.136Z,11.04
2023-04-17T10:39:56.987Z,11.05
2023-04-17T10:42:25.657Z,11.06
2023-04-17T10:44:59.392Z,11.09
2023-04-17T10:47:33.449Z,11.15
2023-04-17T10:50:03.907Z,11.23
2023-04-17T16:59:37.684Z,10.60
2023-04-17T17:02:05.259Z,10.63
2023-04-17T17:12:55.187Z,10.51
2023-04-17T17:15:24.349Z,10.43
2023-04-17T17:17:51.842Z,10.39
2023-04-17T17:20:20.254Z,10.37
2023-04-17T17:22:47.736Z,10.31
2023-04-17T17:25:15.226Z,10.29
2023-04-17T17:27:42.748Z,10.26
2023-04-17T17:30:10.892Z,10.25
2023-04-17T17:32:39.801Z,10.27
2023-04-17T17:35:08.489Z,10.30
2023-04-17T17:37:35.996Z,10.29
2023-04-17T17:40:04.299Z,10.27
2023-04-17T17:42:31.952Z,10.25
2023-04-17T17:44:59.480Z,10.25
2023-04-17T17:47:27.046Z,10.26
2023-04-17T17:49:55.919Z,10.28
2023-04-17T17:52:23.468Z,10.28
2023-04-17T17:54:51.029Z,10.29
2023-04-17T17:57:18.692Z,10.29
2023-04-17T17:59:46.375Z,10.28
2023-04-17T18:02:14.004Z,10.28
2023-04-17T18:04:41.918Z,10.30
2023-04-17T18:07:10.900Z,10.32
2023-04-17T18:09:38.406Z,10.29
2023-04-17T18:12:06.867Z,10.25
2023-04-17T18:14:34.373Z,10.20
2023-04-17T18:17:01.883Z,10.14
2023-04-17T18:19:29.420Z,10.11
2023-04-17T18:21:57.141Z,10.10
2023-04-17T18:24:26.139Z,10.10
2023-04-17T18:26:53.620Z,10.07
2023-04-17T18:29:21.151Z,10.01
2023-04-17T18:31:51.066Z,9.96
2023-04-17T18:34:18.819Z,9.94
2023-04-17T18:36:46.338Z,9.89
2023-04-17T18:39:14.670Z,9.86
2023-04-17T18:41:43.520Z,9.82
2023-04-17T18:44:11.253Z,9.78
2023-04-17T18:46:38.912Z,9.76
2023-04-17T18:49:06.488Z,9.74
2023-04-17T18:51:34.004Z,9.71
2023-04-17T18:54:02.665Z,9.69
2023-04-17T18:56:30.265Z,9.67
2023-04-17T18:58:59.140Z,9.64
2023-04-17T19:01:26.679Z,9.64
2023-04-17T19:03:54.203Z,9.62
2023-04-17T19:06:21.693Z,9.59
2023-04-17T19:08:49.195Z,9.60
2023-04-17T19:11:16.721Z,9.67
2023-04-17T19:13:45.021Z,9.70
2023-04-17T19:16:13.950Z,9.67
2023-04-17T19:18:41.456Z,9.62
2023-04-17T19:21:08.999Z,9.57
2023-04-17T19:23:37.486Z,9.55
2023-04-17T19:26:05.059Z,9.51
2023-04-17T19:28:32.571Z,9.45
2023-04-17T19:31:00.851Z,9.41
2023-04-17T19:33:29.882Z,9.39
2023-04-17T19:35:58.281Z,9.37
2023-04-17T19:38:27.758Z,9.34
2023-04-17T19:41:14.394Z,9.33
2023-04-17T19:43:42.422Z,9.28
2023-04-17T19:46:10.137Z,9.23
2023-04-17T19:48:39.118Z,9.17
2023-04-17T19:51:07.302Z,9.14
2023-04-17T19:53:35.912Z,9.11
2023-04-17T19:56:05.748Z,9.10
2023-04-17T19:58:35.316Z,9.07
2023-04-17T20:01:03.254Z,9.06
2023-04-17T20:03:31.774Z,9.05
2023-04-17T20:06:01.067Z,9.06
2023-04-17T20:08:28.636Z,9.10
2023-04-17T20:10:56.123Z,9.10
2023-04-17T20:13:23.616Z,9.11
2023-04-17T20:15:51.177Z,9.10
2023-04-17T20:18:18.795Z,9.10
2023-04-17T20:20:46.594Z,9.07
2023-04-17T20:23:15.458Z,9.11
2023-04-17T20:25:42.969Z,9.18
2023-04-17T20:28:10.668Z,9.20
2023-04-17T20:30:38.253Z,9.25
2023-04-17T20:33:05.944Z,9.27
2023-04-17T20:35:33.548Z,9.30
2023-04-17T20:38:01.104Z,9.27
2023-04-17T20:40:30.151Z,9.22
2023-04-17T20:42:57.723Z,9.18
2023-04-17T20:45:25.342Z,9.12
2023-04-17T20:47:57.071Z,9.04
2023-04-17T20:50:25.374Z,8.99
2023-04-17T20:52:52.860Z,8.99
2023-04-17T20:55:20.843Z,9.06
2023-04-17T20:57:49.715Z,9.14
2023-04-17T21:00:17.655Z,9.15
2023-04-17T21:02:45.889Z,9.11
2023-04-17T21:05:13.454Z,9.10
2023-04-17T21:07:40.968Z,9.12
2023-04-17T21:10:09.411Z,9.16
2023-04-17T21:12:36.955Z,9.15
2023-04-17T21:15:06.749Z,9.16
2023-04-17T21:17:34.409Z,9.16
2023-04-17T21:20:01.917Z,9.17
2023-04-17T21:22:29.415Z,9.19
2023-04-17T21:24:56.930Z,9.20
2023-04-17T21:27:24.556Z,9.21
2023-04-17T21:29:52.102Z,9.21
2023-04-17T21:32:21.109Z,9.18
2023-04-17T21:34:48.649Z,9.13
2023-04-17T21:37:16.148Z,9.12
2023-04-17T21:39:43.696Z,9.15
2023-04-17T21:42:11.257Z,9.11
2023-04-17T21:44:38.768Z,9.11
2023-04-17T21:47:06.390Z,9.12
2023-04-17T21:49:35.301Z,9.13
2023-04-17T21:52:02.827Z,9.12
2023-04-17T21:54:30.356Z,9.08
2023-04-17T21:56:57.897Z,9.11
2023-04-17T21:59:25.448Z,9.12
2023-04-17T22:01:52.996Z,9.10
2023-04-17T22:04:20.568Z,9.08
2023-04-17T22:06:51.632Z,9.11
2023-04-17T22:09:20.432Z,9.17
2023-04-17T22:11:48.577Z,9.18
2023-04-17T22:14:16.726Z,9.16
2023-04-17T22:16:44.551Z,9.17
2023-04-17T22:19:12.103Z,9.20
2023-04-17T22:21:39.634Z,9.20
2023-04-17T22:24:09.634Z,9.15
2023-04-17T22:26:37.123Z,9.14
2023-04-17T22:29:04.648Z,9.18
2023-04-17T22:31:32.301Z,9.21
2023-04-17T22:33:59.957Z,9.16
2023-04-17T22:36:27.448Z,9.11
2023-04-17T22:38:55.070Z,9.11
2023-04-17T22:41:23.893Z,9.05
2023-04-17T22:43:51.459Z,8.98
2023-04-17T22:46:19.041Z,8.92
2023-04-17T22:48:47.049Z,8.84
2023-04-17T22:51:15.042Z,8.80
2023-04-17T22:53:43.876Z,8.81
2023-04-17T22:56:13.694Z,8.86
2023-04-17T22:58:42.544Z,8.92
2023-04-17T23:01:10.102Z,8.96
2023-04-17T23:03:37.650Z,9.02
2023-04-17T23:06:07.387Z,9.08
2023-04-17T23:08:34.873Z,9.11
2023-04-17T23:11:03.442Z,9.10
2023-04-17T23:13:31.607Z,9.15
2023-04-17T23:16:00.774Z,9.16
2023-04-17T23:18:28.320Z,9.18
2023-04-17T23:20:55.844Z,9.20
2023-04-17T23:23:23.360Z,9.19
2023-04-17T23:25:50.941Z,9.21
2023-04-17T23:28:18.503Z,9.19
2023-04-17T23:30:46.083Z,9.18
2023-04-17T23:33:15.086Z,9.19
2023-04-17T23:35:42.719Z,9.19
2023-04-17T23:38:10.407Z,9.17
2023-04-17T23:40:38.131Z,9.13
2023-04-17T23:43:06.099Z,9.06
2023-04-17T23:45:33.776Z,8.97
2023-04-17T23:48:01.408Z,8.93
2023-04-17T23:50:30.560Z,8.88
2023-04-17T23:52:58.159Z,8.87
2023-04-17T23:55:26.973Z,8.86
2023-04-17T23:57:54.955Z,8.80
